Valley Peak, Santa Cruz Island Reserve, California Weather observations

Data are for 10 minute period ending at time listed.
 Day   Time   Solar   Ave.   Ave.  Ave.  Vector  Max.   Baro.   Total    
  of    of     Rad.   Air    Rel.  Wind   Wind   Wind  Press.  Precip.   
Year   Day            Temp.  Hum.  Speed  Dir.   Gust                    
2016   (PST)  Kw/m2    F      %     mph   deg.    mph    mb.     in.     
-------------------------------------------------------------------------
 274   15:00   0.49   87.6    31    2.9   166     7.0   966.6    0.00 
 274   15:10   0.46   85.6    33    3.1   187     5.3   966.4    0.00 
 274   15:20   0.43   85.9    33    2.8   173     6.4   966.3    0.00 
 274   15:30   0.40   85.3    34    3.9   178     7.6   966.3    0.00 
 274   15:40   0.37   84.8    35    3.5   200     7.7   966.2    0.00 
 274   15:50   0.34   85.9    34    1.5   170     5.2   966.1    0.00 
 274   16:00   0.30   85.7    34    2.3   228     5.8   966.0    0.00 
 274   16:10   0.27   86.8    32    0.9    45     2.8   966.0    0.00 
 274   16:20   0.24   85.1    34    1.5   298     4.4   965.9    0.00 
 274   16:30   0.20   83.4    40    2.1   286     5.2   965.8    0.00 
 274   16:40   0.17   80.9    41    3.0   294     5.3   965.7    0.00 
 274   16:50   0.14   80.6    40    2.0   300     3.1   965.7    0.00 
 274   17:00   0.11   78.2    32    3.6   357     5.0   965.5    0.00 
 274   17:10   0.08   74.2    32    6.6    12     7.7   965.4    0.00 
 274   17:20   0.05   72.2    37    7.4     7     8.1   965.2    0.00 
 274   17:30   0.02   70.6    40    7.4    15     8.5   965.0    0.00 
 274   17:40   0.01   69.8    42    8.4    14     9.8   964.8    0.00 
 274   17:50   0.00   68.6    52    7.8    15    10.2   964.7    0.00 
 274   18:00   0.00   68.5    51    7.7     8     9.5   964.7    0.00 
 274   18:10   0.00   69.3    46    7.9   358    10.7   964.8    0.00 
 274   18:20   0.00   69.9    44    6.9   358     9.5   964.8    0.00 
 274   18:30   0.00   69.3    44    6.1     5     9.3   965.0    0.00 
 274   18:40   0.00   68.4    46    7.5    14     9.4   965.0    0.00 
 274   18:50   0.00   67.8    46    8.2    12    10.2   965.0    0.00 
 274   19:00   0.00   68.4    43    8.8   359    11.8   965.0    0.00 
 274   19:10   0.00   70.5    33   10.2   344    14.7   964.9    0.00 
 274   19:20   0.00   71.5    31    9.5   343    13.7   964.9    0.00 
 274   19:30   0.00   71.4    29   10.2   337    14.8   965.0    0.00 
 274   19:40   0.00   71.7    28    9.2   343    13.2   965.2    0.00 
 274   19:50   0.00   72.2    26    9.7   336    14.6   965.2    0.00 
 274   20:00   0.00   73.3    24   10.3   328    14.4   965.2    0.00 
 274   20:10   0.00   73.6    24   10.1   323    14.7   965.2    0.00 
 274   20:20   0.00   74.0    23   10.5   328    14.0   965.1    0.00 
 274   20:30   0.00   73.5    25   10.8   342    14.0   965.1    0.00 
 274   20:40   0.00   73.4    25   10.3   343    13.6   965.1    0.00 
 274   20:50   0.00   73.1    26   10.1   348    12.8   965.1    0.00 
 274   21:00   0.00   71.6    30    8.6   360    11.2   965.3    0.00 
 274   21:10   0.00   70.6    31    8.0   358    10.2   965.3    0.00 
 274   21:20   0.00   70.9    31    8.3   352    11.0   965.4    0.00 
 274   21:30   0.00   70.1    33    8.5   358    11.3   965.5    0.00 
 274   21:40   0.00   71.5    30   10.0   339    13.5   965.4    0.00 
 274   21:50   0.00   72.3    28   10.1   336    14.1   965.4    0.00 
 274   22:00   0.00   72.7    27    9.9   327    12.7   965.5    0.00 
 274   22:10   0.00   71.7    30    9.1   338    10.4   965.5    0.00 
 274   22:20   0.00   70.8    31    9.8   337    12.7   965.6    0.00 
 274   22:30   0.00   72.4    27    9.1   323    11.0   965.6    0.00 
 274   22:40   0.00   71.7    29    6.6   335     9.0   965.6    0.00 
 274   22:50   0.00   70.5    31    5.2   322     8.8   965.5    0.00 
 274   23:00   0.00   71.2    29    5.9   318    10.0   965.5    0.00 
 274   23:10   0.00   71.5    28    3.9   318     7.3   965.6    0.00 
 274   23:20   0.00   72.0    27    3.8   287     5.7   965.7    0.00 
 274   23:30   0.00   72.2    27    2.8   308     4.7   965.6    0.00 
 274   23:40   0.00   71.0    29    2.2   248     5.8   965.6    0.00 
 274   23:50   0.00   71.6    27    1.9   237     5.3   965.5    0.00 
 275    0:00   0.00   69.3    34    2.1    54     4.2   965.6    0.00 
 275    0:10   0.00   66.7    41    3.7    21     8.0   965.6    0.00 
 275    0:20   0.00   66.3    40    4.2    15     6.7   965.7    0.00 
 275    0:30   0.00   67.2    35    4.8   339     7.2   965.8    0.00 
 275    0:40   0.00   67.8    34    4.5   328     6.3   965.8    0.00 
 275    0:50   0.00   67.7    32    2.4   173     5.3   965.8    0.00 
 275    1:00   0.00   68.5    30    5.4   154     6.2   965.8    0.00 
 275    1:10   0.00   68.3    32    6.1   162     7.5   965.7    0.00 
 275    1:20   0.00   67.9    32    5.4   154     6.3   965.8    0.00 
 275    1:30   0.00   67.7    33    5.3   161     6.1   965.8    0.00 
 275    1:40   0.00   67.8    34    4.3   174     5.4   965.8    0.00 
 275    1:50   0.00   67.1    36    4.1   197     4.7   965.7    0.00 
 275    2:00   0.00   66.3    40    5.1   182     6.1   965.7    0.00 
 275    2:10   0.00   66.7    45    3.4   149     5.4   965.6    0.00 
 275    2:20   0.00   65.6    42    1.1   120     2.1   965.5    0.00 
 275    2:30   0.00   65.1    42    1.1   253     2.3   965.5    0.00 
 275    2:40   0.00   65.2    46    2.2   206     3.7   965.5    0.00 
 275    2:50   0.00   65.9    51    3.1   205     5.0   965.5    0.00 
 275    3:00   0.00   66.6    50    4.4   197     5.2   965.5    0.00 
 275    3:10   0.00   67.1    49    3.3   172     4.9   965.5    0.00 
 275    3:20   0.00   66.2    52    2.8   160     4.3   965.6    0.00 
 275    3:30   0.00   67.0    44    4.4   186     5.0   965.5    0.00 
 275    3:40   0.00   67.8    41    3.4   165     4.2   965.4    0.00 
 275    3:50   0.00   67.7    42    2.9   161     3.7   965.3    0.00 
 275    4:00   0.00   67.8    42    3.3   168     4.7   965.3    0.00 
 275    4:10   0.00   67.5    44    4.8   165     5.6   965.3    0.00 
 275    4:20   0.00   66.4    49    5.8   172     6.8   965.2    0.00 
 275    4:30   0.00   65.5    51    7.2   161     9.0   965.4    0.00 
 275    4:40   0.00   65.1    52    6.7   160     8.0   965.5    0.00 
 275    4:50   0.00   64.1    54    7.8   155     8.8   965.5    0.00 
 275    5:00   0.00   65.0    52    5.8   154     8.0   965.5    0.00 
 275    5:10   0.00   65.6    48    6.0   162     7.1   965.5    0.00 
 275    5:20   0.00   65.7    50    6.1   149     7.1   965.5    0.00 
 275    5:30   0.00   64.6    52    6.1   150     6.9   965.6    0.00 
 275    5:40   0.00   64.0    53    5.8   144     8.5   965.7    0.00 
 275    5:50   0.00   63.9    58    6.1   142     7.6   965.7    0.00 
 275    6:00   0.00   62.8    66    5.8   139     8.0   965.8    0.00 
 275    6:10   0.01   62.8    62    4.4   131     6.4   965.8    0.00 
 275    6:20   0.03   63.1    59    1.1    34     2.2   965.9    0.00 
 275    6:30   0.07   64.0    55    2.0   155     3.1   965.9    0.00 
 275    6:40   0.09   65.0    57    3.6   162     5.0   966.0    0.00 
 275    6:50   0.12   64.6    62    2.4   147     4.9   966.1    0.00 
 275    7:00   0.15   63.8    70    3.1   136     4.7   966.2    0.00 
 275    7:10   0.19   63.3    74    4.8   157     7.2   966.3    0.00 
 275    7:20   0.22   63.4    76    4.5   151     7.0   966.2    0.00 
 275    7:30   0.26   64.2    72    4.4   147     7.7   966.3    0.00 
 275    7:40   0.29   64.9    72    4.8   150     8.6   966.4    0.00 
 275    7:50   0.33   65.5    72    4.9   146     9.3   966.5    0.00 
 275    8:00   0.36   66.5    68    5.0   145     9.2   966.6    0.00 
 275    8:10   0.39   67.3    65    5.2   153     9.3   966.6    0.00 
 275    8:20   0.42   67.6    64    6.0   163     9.6   966.6    0.00 
 275    8:30   0.46   66.9    64    5.7   170     8.8   966.6    0.00 
 275    8:40   0.49   67.5    63    4.5   167     9.0   966.6    0.00 
 275    8:50   0.52   69.1    60    3.5   165     7.1   966.6    0.00 
 275    9:00   0.55   69.5    57    2.9   160     7.0   966.6    0.00 
 275    9:10   0.57   71.1    56    2.9   151     8.4   966.6    0.00 
 275    9:20   0.60   72.2    57    3.6   143     7.9   966.7    0.00 
 275    9:30   0.63   72.3    57    3.6   129     6.5   966.7    0.00 
 275    9:40   0.65   73.3    55    4.6   130     9.8   966.6    0.00 
 275    9:50   0.67   74.7    53    5.1   127     8.8   966.6    0.00 
 275   10:00   0.69   74.5    55    4.5   123     9.7   966.6    0.00 
 275   10:10   0.71   75.4    53    4.0   102     7.4   966.6    0.00 
 275   10:20   0.73   76.6    52    4.2   127     7.2   966.6    0.00 
 275   10:30   0.75   76.4    53    2.8    95     6.4   966.4    0.00 
 275   10:40   0.76   77.1    49    3.7    66     6.7   966.4    0.00 
 275   10:50   0.77   76.7    50    4.2    91     8.7   966.4    0.00 
 275   11:00   0.78   77.5    52    4.0   124     7.8   966.4    0.00 
 275   11:10   0.79   76.9    54    4.3   126     8.0   966.5    0.00 
 275   11:20   0.80   75.8    55    3.8   133     7.5   966.5    0.00 
 275   11:30   0.80   76.6    53    4.5   147     8.4   966.4    0.00 
 275   11:40   0.81   77.2    52    4.6   143     8.0   966.3    0.00 
 275   11:50   0.81   77.3    50    3.9   136     7.7   966.2    0.00 
 275   12:00   0.81   79.0    46    3.8   130     8.6   966.1    0.00 
 275   12:10   0.81   79.1    44    4.4   128     7.8   966.1    0.00 
 275   12:20   0.80   78.9    41    3.6   134     9.3   966.1    0.00 
 275   12:30   0.80   80.2    39    4.0   130     8.8   966.0    0.00 
 275   12:40   0.79   80.1    40    4.7   142     8.7   965.8    0.00 
 275   12:50   0.78   78.7    43    3.9   140     7.7   965.7    0.00 
 275   13:00   0.77   79.6    43    3.5   106     7.5   965.6    0.00 
 275   13:10   0.76   79.1    44    2.7    66     5.6   965.6    0.00 
 275   13:20   0.74   79.8    44    2.8    52     5.2   965.5    0.00 
 275   13:30   0.72   76.0    49    4.3    32     7.2   965.4    0.00 
 275   13:40   0.70   74.0    52    6.0    38     9.6   965.3    0.00 
 275   13:50   0.68   73.7    53    5.5    40     9.3   965.3    0.00 
 275   14:00   0.66   74.9    51    5.4    42     8.2   965.3    0.00 
 275   14:10   0.64   73.7    53    5.2    33     7.5   965.2    0.00 
 275   14:20   0.61   74.3    52    6.4    36     9.7   965.2    0.00 
 275   14:30   0.59   72.2    54    6.9    32     8.9   965.1    0.00 
 275   14:40   0.56   71.3    55    6.1    31     9.1   964.9    0.00 
 275   14:50   0.53   71.6    54    6.1    34     8.3   964.8    0.00 

Return to Valley Peak, Santa Cruz Island Reserve graphs page.


Western Regional Climate Center,wrcc@dri.edu